Time;durP1;ratioP1;P1;durP2;ratioP2;P2;SDS_P1;SDS_P2;PMS_P1;PMS_P2;Temp;Humidity;BMP_temperature;BMP_pressure;BME280_temperature;BME280_humidity;BME280_pressure;Samples;Min_cycle;Max_cycle;Signal;HPM_P1;HPM_P2
2022/10/29 00:02:01;;;;;;;11.27;5.83;;;;;;;15.74;98.09;155405.66;4976272;28;20983;-77
2022/10/29 00:04:46;;;;;;;7.20;4.57;;;;;;;15.67;99.25;155387.41;4975951;28;20469;-77
2022/10/29 00:07:32;;;;;;;6.80;5.00;;;;;;;15.61;99.29;155371.84;4970300;28;20453;-77
2022/10/29 00:10:18;;;;;;;9.80;5.70;;;;;;;15.57;98.94;155361.44;4976237;28;20489;-77
2022/10/29 00:13:04;;;;;;;7.00;5.20;;;;;;;15.50;99.30;155343.25;4975502;28;20434;-77
2022/10/29 00:15:49;;;;;;;8.20;4.83;;;;;;;15.43;99.18;155323.72;4967819;28;20437;-77
2022/10/29 00:18:35;;;;;;;8.70;5.63;;;;;;;15.35;100.00;155304.22;4976766;28;20586;-77
2022/10/29 00:21:22;;;;;;;7.90;5.30;;;;;;;15.28;100.00;155286.00;4975604;28;20550;-77
2022/10/29 00:24:09;;;;;;;8.00;5.00;;;;;;;15.21;100.00;155267.81;4975827;28;20488;-77
2022/10/29 00:26:55;;;;;;;8.73;5.23;;;;;;;15.25;100.00;155278.19;4974237;28;20806;-77
2022/10/29 00:29:40;;;;;;;13.07;6.17;;;;;;;15.25;100.00;155278.19;4975271;28;20769;-77
2022/10/29 00:32:26;;;;;;;9.97;5.30;;;;;;;15.24;100.00;155275.63;4975464;28;20443;-77
2022/10/29 00:35:11;;;;;;;9.80;5.53;;;;;;;15.17;100.00;155257.41;4968445;28;20661;-77
2022/10/29 00:37:57;;;;;;;8.73;5.60;;;;;;;15.13;100.00;155248.34;4956527;29;20929;-77
2022/10/29 00:40:42;;;;;;;13.20;5.90;;;;;;;15.12;100.00;155244.41;4970374;28;20831;-77
2022/10/29 00:43:29;;;;;;;6.63;5.90;;;;;;;15.09;100.00;155237.91;4958946;28;20488;-77
2022/10/29 00:46:16;;;;;;;8.10;5.83;;;;;;;15.10;100.00;155240.53;4975595;28;20414;-77
2022/10/29 00:49:02;;;;;;;8.37;5.87;;;;;;;15.06;100.00;155228.84;4975025;28;20512;-77
2022/10/29 00:51:48;;;;;;;11.23;6.37;;;;;;;15.05;100.00;155226.22;4975621;28;20489;-77
2022/10/29 00:54:36;;;;;;;6.70;6.00;;;;;;;15.02;100.00;155218.44;4975182;28;20417;-77
2022/10/29 00:57:25;;;;;;;8.93;6.20;;;;;;;14.99;100.00;155210.63;4976137;28;20971;-77
2022/10/29 01:00:14;;;;;;;7.53;5.80;;;;;;;14.94;100.00;155197.66;4975401;28;20551;-77
2022/10/29 01:02:59;;;;;;;11.70;6.43;;;;;;;14.97;100.00;155206.75;4969540;28;20457;-77
2022/10/29 01:05:45;;;;;;;6.27;5.67;;;;;;;14.91;100.00;155191.16;4974721;28;20469;-90
2022/10/29 01:08:30;;;;;;;13.33;6.73;;;;;;;14.87;100.00;155180.78;4975167;28;20836;-90
2022/10/29 01:11:20;;;;;;;10.13;6.10;;;;;;;14.86;100.00;155176.84;4971264;28;20466;-90
2022/10/29 01:14:14;;;;;;;9.20;6.50;;;;;;;14.85;100.00;155174.28;4974107;28;20453;-90
2022/10/29 01:17:07;;;;;;;9.53;6.90;;;;;;;14.82;100.00;155167.78;4967820;28;20462;-90
2022/10/29 01:20:24;;;;;;;7.47;6.70;;;;;;;14.82;100.00;155166.47;4949659;28;21057;-90
2022/10/29 01:23:33;;;;;;;8.57;6.30;;;;;;;14.82;100.00;155166.47;4973267;28;20564;-90
2022/10/29 01:26:35;;;;;;;7.93;6.40;;;;;;;14.80;100.00;155161.31;4975132;28;20474;-90
2022/10/29 01:29:35;;;;;;;9.03;5.80;;;;;;;14.84;100.00;155171.66;4974089;28;20998;-90
2022/10/29 01:32:27;;;;;;;9.53;6.80;;;;;;;14.86;100.00;155176.84;4966921;28;20453;-90
2022/10/29 01:35:18;;;;;;;11.93;6.60;;;;;;;14.89;100.00;155184.66;4975166;28;20562;-90
2022/10/29 01:38:10;;;;;;;6.93;5.63;;;;;;;14.91;100.00;155189.84;4973633;28;20465;-90
2022/10/29 01:41:00;;;;;;;9.33;7.40;;;;;;;14.91;100.00;155189.84;4967430;28;20928;-90
2022/10/29 01:43:49;;;;;;;9.07;5.70;;;;;;;14.91;100.00;155191.16;4973677;28;20856;-90
2022/10/29 01:46:37;;;;;;;12.50;7.80;;;;;;;14.92;100.00;155192.47;4973839;28;20780;-77
2022/10/29 01:49:27;;;;;;;7.90;6.23;;;;;;;14.90;100.00;155188.56;4973956;28;21254;-77
2022/10/29 01:52:14;;;;;;;8.30;5.97;;;;;;;14.88;100.00;155182.09;4973910;28;20816;-77
2022/10/29 01:54:59;;;;;;;16.33;6.83;;;;;;;14.82;100.00;155167.78;4959350;28;20418;-77
2022/10/29 01:57:45;;;;;;;8.23;6.50;;;;;;;14.83;100.00;155169.06;4973790;28;20593;-77
2022/10/29 02:00:37;;;;;;;8.70;6.40;;;;;;;14.79;100.00;155158.69;4973706;28;20477;-77
2022/10/29 02:03:33;;;;;;;10.20;6.93;;;;;;;14.77;100.00;155153.50;4974823;28;20522;-77
2022/10/29 02:06:29;;;;;;;9.37;7.00;;;;;;;14.71;100.00;155137.91;4969569;28;20799;-77
2022/10/29 02:09:17;;;;;;;8.40;6.50;;;;;;;14.68;100.00;155130.09;4973712;28;20409;-77
2022/10/29 02:12:09;;;;;;;9.87;7.10;;;;;;;14.64;100.00;155121.00;4974041;28;20441;-77
2022/10/29 02:14:58;;;;;;;11.87;7.40;;;;;;;14.60;100.00;155111.94;4973141;28;20470;-77
2022/10/29 02:17:44;;;;;;;16.53;6.90;;;;;;;14.58;100.00;155105.44;4973454;28;20805;-77
2022/10/29 02:20:30;;;;;;;12.07;7.00;;;;;;;14.58;100.00;155105.44;4973369;28;20518;-77
2022/10/29 02:23:16;;;;;;;11.57;6.93;;;;;;;14.59;100.00;155108.00;4971963;28;20485;-77
2022/10/29 02:26:02;;;;;;;13.07;7.20;;;;;;;14.59;100.00;155109.31;4969437;28;20461;-77
2022/10/29 02:28:47;;;;;;;8.43;6.60;;;;;;;14.59;100.00;155109.31;4974053;28;20502;-77
2022/10/29 02:31:35;;;;;;;10.23;6.63;;;;;;;14.59;100.00;155109.31;4973695;28;20972;-77
2022/10/29 02:34:20;;;;;;;9.23;6.70;;;;;;;14.60;100.00;155111.94;4971638;28;20457;-77
2022/10/29 02:37:05;;;;;;;14.07;6.97;;;;;;;14.60;100.00;155111.94;4974588;28;20440;-77
2022/10/29 02:39:52;;;;;;;10.63;7.43;;;;;;;14.57;100.00;155104.13;4973198;28;20418;-77
2022/10/29 02:42:37;;;;;;;8.60;6.50;;;;;;;14.57;100.00;155104.13;4972603;28;20473;-77
2022/10/29 02:45:22;;;;;;;9.10;6.90;;;;;;;14.56;100.00;155100.25;4971181;28;20457;-77
2022/10/29 02:48:08;;;;;;;8.20;6.37;;;;;;;14.57;100.00;155104.13;4974175;28;20474;-77
2022/10/29 02:50:53;;;;;;;8.30;7.13;;;;;;;14.56;100.00;155100.25;4973475;28;20988;-77
2022/10/29 02:53:39;;;;;;;10.03;7.53;;;;;;;14.56;100.00;155101.50;4970963;28;20796;-77
2022/10/29 02:56:25;;;;;;;14.23;7.27;;;;;;;14.63;100.00;155118.41;4973917;28;20477;-77
2022/10/29 02:59:10;;;;;;;11.03;7.13;;;;;;;14.61;100.00;155114.50;4973309;28;20562;-77
2022/10/29 03:01:56;;;;;;;9.03;7.17;;;;;;;14.59;100.00;155109.31;4972063;28;20458;-77
2022/10/29 03:04:43;;;;;;;12.20;6.70;;;;;;;14.63;100.00;155119.72;4965994;28;20453;-77
2022/10/29 03:07:28;;;;;;;9.23;6.80;;;;;;;14.64;100.00;155122.28;4973553;28;20929;-77
2022/10/29 03:10:14;;;;;;;11.20;6.67;;;;;;;14.63;100.00;155119.72;4971169;28;20948;-77
2022/10/29 03:13:01;;;;;;;7.10;6.40;;;;;;;14.62;100.00;155117.09;4958047;28;20463;-77
2022/10/29 03:15:46;;;;;;;11.27;7.77;;;;;;;14.64;100.00;155122.28;4958482;28;20417;-77
2022/10/29 03:18:31;;;;;;;8.40;5.70;;;;;;;14.63;100.00;155118.41;4973480;28;20458;-77
2022/10/29 03:21:16;;;;;;;8.40;6.60;;;;;;;14.68;100.00;155130.09;4971448;28;20524;-77
2022/10/29 03:24:02;;;;;;;10.00;7.30;;;;;;;14.62;100.00;155117.09;4972414;28;20534;-77
2022/10/29 03:26:47;;;;;;;11.70;7.20;;;;;;;14.64;100.00;155121.00;4971926;28;20774;-77
2022/10/29 03:29:34;;;;;;;7.73;6.80;;;;;;;14.66;100.00;155126.22;4971554;28;20458;-77
2022/10/29 03:32:19;;;;;;;9.27;7.30;;;;;;;14.63;100.00;155118.41;4972734;28;20772;-77
2022/10/29 03:35:05;;;;;;;13.57;6.73;;;;;;;14.59;100.00;155109.31;4972729;28;20575;-77
2022/10/29 03:37:51;;;;;;;8.53;6.67;;;;;;;14.61;100.00;155113.25;4971659;28;20472;-77
2022/10/29 03:40:37;;;;;;;10.73;7.60;;;;;;;14.59;100.00;155108.00;4972031;28;20437;-77
2022/10/29 03:43:23;;;;;;;9.00;7.50;;;;;;;14.56;100.00;155101.50;4973106;28;20437;-77
2022/10/29 03:46:09;;;;;;;11.63;6.77;;;;;;;14.60;100.00;155110.63;4956866;28;20578;-77
2022/10/29 03:48:54;;;;;;;9.60;6.57;;;;;;;14.57;100.00;155104.13;4973424;28;20457;-77
2022/10/29 03:51:40;;;;;;;10.40;6.63;;;;;;;14.57;100.00;155104.13;4972850;28;20493;-77
2022/10/29 03:54:25;;;;;;;8.13;6.40;;;;;;;14.57;100.00;155102.81;4965172;28;20801;-77
2022/10/29 03:57:10;;;;;;;8.50;6.50;;;;;;;14.56;100.00;155100.25;4967718;28;20529;-77
2022/10/29 03:59:56;;;;;;;11.03;6.60;;;;;;;14.58;100.00;155106.75;4963797;28;20446;-77
2022/10/29 04:02:42;;;;;;;8.47;6.97;;;;;;;14.61;100.00;155114.50;4956242;29;20439;-77
2022/10/29 04:05:28;;;;;;;10.77;5.77;;;;;;;14.62;100.00;155115.81;5043650;23;20488;-89
2022/10/29 04:08:13;;;;;;;8.27;6.70;;;;;;;14.63;100.00;155119.72;5015494;28;20428;-89
2022/10/29 04:10:58;;;;;;;7.80;6.03;;;;;;;14.64;100.00;155121.00;5014945;28;20783;-89
2022/10/29 04:13:43;;;;;;;12.63;6.50;;;;;;;14.66;100.00;155124.91;5006649;28;20487;-88
2022/10/29 04:16:29;;;;;;;9.97;6.50;;;;;;;14.68;100.00;155131.41;5014466;28;20419;-88
2022/10/29 04:20:14;;;;;;;8.97;6.07;;;;;;;14.68;100.00;155130.09;5012793;28;20446;-90
2022/10/29 04:23:01;;;;;;;8.43;5.80;;;;;;;14.67;100.00;155127.53;4974388;28;20422;-89
2022/10/29 04:25:56;;;;;;;10.33;7.07;;;;;;;14.64;100.00;155122.28;4973547;28;20462;-90
2022/10/29 04:28:49;;;;;;;8.77;6.83;;;;;;;14.59;100.00;155108.00;4977236;28;20572;-89
2022/10/29 04:31:35;;;;;;;7.10;6.40;;;;;;;14.56;100.00;155101.50;4989071;28;20433;-89
2022/10/29 04:34:21;;;;;;;9.10;6.90;;;;;;;14.54;100.00;155095.03;5005488;28;20437;-89
2022/10/29 04:37:12;;;;;;;10.37;6.77;;;;;;;14.51;100.00;155088.53;4994660;28;20413;-90
2022/10/29 04:39:59;;;;;;;11.63;7.17;;;;;;;14.51;100.00;155087.22;4995730;28;20576;-76
2022/10/29 04:42:44;;;;;;;9.70;6.87;;;;;;;14.50;100.00;155084.66;4995065;28;20492;-76
2022/10/29 04:45:30;;;;;;;9.33;6.50;;;;;;;14.50;100.00;155084.66;4993410;28;20887;-76
2022/10/29 04:48:15;;;;;;;15.80;7.43;;;;;;;14.50;100.00;155085.97;4991338;28;20420;-76
2022/10/29 04:51:01;;;;;;;8.37;6.40;;;;;;;14.46;100.00;155075.53;5009906;28;20415;-76
2022/10/29 04:53:46;;;;;;;7.80;6.80;;;;;;;14.43;100.00;155067.75;4993475;28;20437;-76
2022/10/29 04:56:33;;;;;;;7.57;6.53;;;;;;;14.42;100.00;155063.88;4994852;28;20401;-76
2022/10/29 05:02:22;;;;;;;11.20;6.00;;;;;;;14.35;100.00;155046.97;4990047;23;20485;-90
2022/10/29 05:05:08;;;;;;;12.63;7.00;;;;;;;14.30;100.00;155033.94;4988945;28;20468;-89
2022/10/29 05:07:57;;;;;;;9.60;6.40;;;;;;;14.25;100.00;155020.94;4993741;28;20783;-89
2022/10/29 05:10:43;;;;;;;7.60;6.60;;;;;;;14.19;100.00;155005.34;4991007;28;20460;-90
2022/10/29 05:13:29;;;;;;;9.67;7.17;;;;;;;14.15;100.00;154993.69;4993881;28;20418;-89
2022/10/29 05:16:15;;;;;;;7.53;6.83;;;;;;;14.09;100.00;154978.09;4994756;28;20444;-89
2022/10/29 05:19:01;;;;;;;7.73;5.97;;;;;;;14.06;100.00;154971.59;4993270;28;21014;-90
2022/10/29 05:21:47;;;;;;;9.10;7.50;;;;;;;13.98;100.00;154952.13;4992473;28;20947;-89
2022/10/29 05:24:32;;;;;;;8.83;6.63;;;;;;;13.96;100.00;154945.66;4995345;28;20793;-89
2022/10/29 05:27:17;;;;;;;8.40;6.60;;;;;;;13.90;100.00;154930.06;4993794;28;20540;-90
2022/10/29 05:30:06;;;;;;;11.40;6.57;;;;;;;13.86;100.00;154921.00;4993457;28;20539;-90
2022/10/29 05:32:51;;;;;;;7.00;6.30;;;;;;;13.85;100.00;154917.06;4993452;28;20778;-90
2022/10/29 05:35:36;;;;;;;8.27;7.00;;;;;;;13.81;100.00;154906.72;4993588;28;20448;-89
2022/10/29 05:38:22;;;;;;;10.40;6.50;;;;;;;13.78;100.00;154898.91;4993969;28;20565;-90
2022/10/29 05:41:08;;;;;;;6.80;6.10;;;;;;;13.74;100.00;154888.56;4993731;28;20789;-89
2022/10/29 05:43:53;;;;;;;9.77;6.33;;;;;;;13.75;100.00;154891.13;4994124;28;20763;-89
2022/10/29 05:46:39;;;;;;;12.40;7.20;;;;;;;13.77;100.00;154896.31;4978656;28;20648;-89
2022/10/29 05:49:25;;;;;;;9.23;6.20;;;;;;;13.76;100.00;154893.75;4994203;28;20413;-90
2022/10/29 05:52:10;;;;;;;7.50;6.20;;;;;;;13.74;100.00;154888.56;4994985;28;20440;-89
2022/10/29 05:54:55;;;;;;;10.83;6.57;;;;;;;13.74;100.00;154889.81;4992738;28;20492;-89
2022/10/29 05:57:43;;;;;;;8.70;6.00;;;;;;;13.76;100.00;154893.75;4993552;28;20585;-89
2022/10/29 06:00:30;;;;;;;8.30;5.80;;;;;;;13.80;100.00;154904.09;4992950;28;20436;-89
2022/10/29 06:03:18;;;;;;;8.57;5.63;;;;;;;13.82;100.00;154909.34;4992103;28;20452;-90
2022/10/29 06:06:04;;;;;;;6.83;6.00;;;;;;;13.81;100.00;154906.72;4993450;28;20472;-89
2022/10/29 06:08:49;;;;;;;8.13;5.50;;;;;;;13.82;100.00;154909.34;4993463;28;20917;-90
2022/10/29 06:11:35;;;;;;;9.10;6.00;;;;;;;13.84;100.00;154914.50;4990735;28;20464;-89
2022/10/29 06:14:21;;;;;;;8.70;6.43;;;;;;;13.85;100.00;154917.06;4980068;28;21021;-89
2022/10/29 06:17:06;;;;;;;7.07;5.87;;;;;;;13.85;100.00;154917.06;4991655;28;20922;-89
2022/10/29 06:19:53;;;;;;;7.50;5.87;;;;;;;13.88;100.00;154924.88;4993247;28;20908;-89
2022/10/29 06:22:38;;;;;;;8.80;6.20;;;;;;;13.86;100.00;154919.69;4974144;28;20495;-89
2022/10/29 06:25:24;;;;;;;6.90;6.00;;;;;;;13.88;100.00;154926.19;4990515;28;20817;-89
2022/10/29 06:28:13;;;;;;;6.63;5.90;;;;;;;13.88;100.00;154926.19;4993310;28;20436;-89
2022/10/29 06:30:59;;;;;;;8.00;6.50;;;;;;;13.90;100.00;154930.06;4988501;28;20950;-90
2022/10/29 06:33:44;;;;;;;11.03;6.43;;;;;;;13.91;100.00;154932.66;4991066;28;20440;-89
2022/10/29 06:36:31;;;;;;;11.10;6.40;;;;;;;13.94;100.00;154941.78;4993266;28;20473;-89
2022/10/29 06:39:16;;;;;;;9.10;6.80;;;;;;;13.96;100.00;154945.66;4991666;28;20516;-89
2022/10/29 06:42:01;;;;;;;12.03;6.90;;;;;;;14.03;100.00;154965.13;5002894;28;20989;-89
2022/10/29 06:44:48;;;;;;;9.40;7.07;;;;;;;14.04;100.00;154967.72;4991948;28;20565;-89
2022/10/29 06:47:38;;;;;;;11.43;6.40;;;;;;;14.09;100.00;154979.41;4991747;28;20547;-89
2022/10/29 06:50:24;;;;;;;11.17;6.30;;;;;;;14.14;100.00;154991.13;4991784;28;20907;-89
2022/10/29 06:53:12;;;;;;;7.13;6.43;;;;;;;14.21;100.00;155010.59;4992477;28;20545;-89
2022/10/29 06:55:58;;;;;;;10.47;6.97;;;;;;;14.30;100.00;155032.63;4992913;28;20557;-90
2022/10/29 06:58:46;;;;;;;10.00;5.67;;;;;;;14.36;100.00;155048.28;4991174;28;20500;-89
2022/10/29 07:01:32;;;;;;;6.93;5.83;;;;;;;14.53;100.00;155093.72;4991636;28;20583;-90
2022/10/29 07:04:19;;;;;;;9.97;6.97;;;;;;;14.68;100.00;155130.09;4973317;28;20432;-89
2022/10/29 07:07:04;;;;;;;8.60;5.83;;;;;;;14.84;100.00;155172.97;4995839;28;20485;-89
2022/10/29 07:09:51;;;;;;;7.03;6.03;;;;;;;15.04;100.00;155224.94;4991821;28;20425;-90
2022/10/29 07:12:39;;;;;;;7.10;5.43;;;;;;;15.17;100.00;155258.72;4989883;28;20460;-91
2022/10/29 07:15:24;;;;;;;9.33;6.30;;;;;;;15.39;100.00;155314.59;4989695;28;20441;-90
2022/10/29 07:18:10;;;;;;;10.10;6.40;;;;;;;15.63;100.00;155377.03;4993353;28;20413;-90
2022/10/29 07:20:55;;;;;;;9.77;6.20;;;;;;;15.79;100.00;155418.63;4991388;28;20437;-91
2022/10/29 07:23:41;;;;;;;9.23;6.63;;;;;;;15.84;100.00;155430.31;5001188;28;20425;-91
2022/10/29 07:26:28;;;;;;;9.77;5.90;;;;;;;15.96;100.00;155461.56;4997974;28;20484;-89
2022/10/29 07:29:13;;;;;;;9.80;6.50;;;;;;;16.13;100.00;155504.44;4994861;28;20420;-91
2022/10/29 07:31:59;;;;;;;9.83;6.70;;;;;;;16.24;99.61;155534.34;4980171;28;20444;-77
2022/10/29 07:34:44;;;;;;;9.80;6.97;;;;;;;16.35;98.62;155561.66;5001909;28;20460;-77
2022/10/29 07:37:29;;;;;;;7.70;6.13;;;;;;;16.50;97.90;155599.38;5000601;28;20467;-77
2022/10/29 07:40:15;;;;;;;8.00;6.57;;;;;;;16.48;96.56;155595.47;4998173;28;20947;-77
2022/10/29 07:43:02;;;;;;;8.87;6.33;;;;;;;16.52;95.59;155604.59;4981968;28;21033;-77
2022/10/29 07:45:49;;;;;;;7.73;6.17;;;;;;;16.55;95.97;155613.72;4978676;28;20818;-77
2022/10/29 07:48:35;;;;;;;8.93;5.70;;;;;;;16.60;95.56;155626.72;4995879;28;20827;-77
2022/10/29 07:51:20;;;;;;;10.03;6.40;;;;;;;16.68;96.54;155647.53;5003113;28;20451;-77
2022/10/29 07:54:05;;;;;;;10.67;7.03;;;;;;;16.72;96.19;155656.66;4986914;28;20456;-77
2022/10/29 07:56:51;;;;;;;23.67;11.10;;;;;;;16.76;94.91;155668.38;4993316;28;20440;-77
2022/10/29 07:59:38;;;;;;;10.27;6.37;;;;;;;16.88;94.59;155699.63;4988626;28;20803;-77
2022/10/29 08:02:24;;;;;;;7.07;6.37;;;;;;;16.95;95.71;155717.81;4999792;28;20489;-77
2022/10/29 08:05:09;;;;;;;10.10;6.23;;;;;;;16.99;94.75;155726.94;5005732;28;20436;-77
2022/10/29 08:07:55;;;;;;;9.33;5.87;;;;;;;17.08;94.51;155750.34;5003162;28;20441;-77
2022/10/29 08:10:40;;;;;;;8.50;6.27;;;;;;;17.15;93.70;155767.28;4987220;28;20444;-77
2022/10/29 08:13:25;;;;;;;16.37;6.87;;;;;;;17.21;94.17;155782.91;4990629;28;21012;-77
2022/10/29 08:16:12;;;;;;;9.47;6.20;;;;;;;17.27;93.52;155799.78;4989877;28;20440;-77
2022/10/29 08:18:57;;;;;;;9.47;6.90;;;;;;;17.35;93.58;155819.31;4999217;28;20503;-77
2022/10/29 08:21:43;;;;;;;15.80;5.83;;;;;;;17.47;91.85;155850.56;4985124;28;20503;-77
2022/10/29 08:24:28;;;;;;;12.63;6.27;;;;;;;17.58;91.83;155879.22;4992070;28;20516;-77
2022/10/29 08:27:13;;;;;;;12.50;7.00;;;;;;;17.71;90.96;155913.13;4985674;28;20515;-77
2022/10/29 08:29:59;;;;;;;7.87;6.23;;;;;;;17.87;90.64;155954.72;4989483;28;20469;-77
2022/10/29 08:32:46;;;;;;;11.90;6.40;;;;;;;18.07;89.35;156005.53;4991412;28;20452;-77
2022/10/29 08:35:32;;;;;;;6.80;5.27;;;;;;;18.16;85.20;156030.25;4994181;28;20516;-77
2022/10/29 08:38:17;;;;;;;8.10;5.33;;;;;;;18.35;84.70;156077.19;4998863;28;20608;-77
2022/10/29 08:41:13;;;;;;;11.10;5.47;;;;;;;18.50;83.76;156116.31;5004662;28;20463;-77
2022/10/29 08:44:13;;;;;;;7.70;5.10;;;;;;;18.58;82.10;156137.13;5007778;28;20425;-77
2022/10/29 08:47:05;;;;;;;6.90;5.00;;;;;;;18.63;80.55;156150.16;4995008;28;20469;-77
2022/10/29 08:50:01;;;;;;;10.70;4.80;;;;;;;18.66;80.71;156158.00;4994476;28;20436;-77
2022/10/29 08:52:48;;;;;;;10.03;5.70;;;;;;;18.74;82.02;156178.84;5006783;28;20535;-77
2022/10/29 08:55:36;;;;;;;15.00;5.57;;;;;;;18.90;79.05;156220.53;4995070;28;20455;-77
2022/10/29 08:58:27;;;;;;;13.50;5.13;;;;;;;18.94;79.42;156229.63;4992621;28;20508;-77
2022/10/29 09:01:12;;;;;;;7.07;4.60;;;;;;;19.00;78.88;156245.28;4995070;28;20471;-77
2022/10/29 09:03:58;;;;;;;8.87;4.93;;;;;;;19.06;78.79;156262.19;5005217;28;20856;-77
2022/10/29 09:06:49;;;;;;;9.03;4.50;;;;;;;19.11;77.00;156273.94;4994520;28;20468;-77
2022/10/29 09:09:39;;;;;;;8.83;4.50;;;;;;;19.22;76.63;156303.88;5000559;28;21051;-77
2022/10/29 09:12:39;;;;;;;4.00;3.30;;;;;;;19.22;76.80;156302.63;5002193;28;20543;-77
2022/10/29 09:15:49;;;;;;;9.00;4.03;;;;;;;19.21;75.11;156301.31;5006709;28;20936;-77
2022/10/29 09:18:49;;;;;;;9.53;4.80;;;;;;;19.14;76.63;156283.03;4977374;28;20520;-77
2022/10/29 09:21:38;;;;;;;8.63;4.43;;;;;;;19.16;75.89;156288.28;4993816;28;20437;-77
2022/10/29 09:24:29;;;;;;;8.00;4.40;;;;;;;19.18;75.56;156293.50;5006032;28;20427;-77
2022/10/29 09:27:19;;;;;;;9.87;4.90;;;;;;;19.20;75.90;156297.38;5005338;28;20468;-77
2022/10/29 09:30:10;;;;;;;10.87;4.40;;;;;;;19.20;77.71;156298.69;5013785;28;20400;-77
2022/10/29 09:32:59;;;;;;;7.57;4.47;;;;;;;19.24;76.07;156307.84;4961177;28;20908;-77
2022/10/29 09:35:47;;;;;;;10.20;4.27;;;;;;;19.20;74.82;156297.38;4987532;28;20460;-77
2022/10/29 09:38:34;;;;;;;9.57;4.57;;;;;;;19.25;75.12;156311.72;4990205;28;20440;-77
2022/10/29 09:41:22;;;;;;;9.60;4.20;;;;;;;19.34;74.79;156333.88;5008467;28;20845;-77
2022/10/29 09:44:17;;;;;;;6.30;4.37;;;;;;;19.29;74.50;156322.16;4999979;28;20926;-77
2022/10/29 09:47:10;;;;;;;7.57;5.00;;;;;;;19.25;76.69;156311.72;4994987;28;20979;-77
2022/10/29 09:50:06;;;;;;;10.53;4.90;;;;;;;19.30;75.42;156324.75;4993337;28;20425;-77
2022/10/29 09:52:53;;;;;;;9.03;5.47;;;;;;;19.38;75.11;156344.34;4994342;28;20433;-77
2022/10/29 09:55:40;;;;;;;7.50;4.30;;;;;;;19.42;76.23;156356.09;4997024;28;20445;-77
2022/10/29 09:58:28;;;;;;;11.07;6.30;;;;;;;19.41;75.29;156353.47;5009229;28;20691;-77
2022/10/29 10:01:14;;;;;;;9.73;3.93;;;;;;;19.41;76.33;156353.47;4995636;28;20472;-77
2022/10/29 10:04:06;;;;;;;6.90;4.20;;;;;;;19.46;76.14;156363.94;4998463;28;20550;-77
2022/10/29 10:07:11;;;;;;;12.10;4.90;;;;;;;19.50;75.10;156374.34;5013657;28;20606;-77
2022/10/29 10:09:58;;;;;;;4.60;3.77;;;;;;;19.48;75.63;156370.44;4982311;28;20441;-77
2022/10/29 10:12:45;;;;;;;10.53;4.80;;;;;;;19.51;76.64;156376.97;5006198;28;20528;-77
2022/10/29 10:15:33;;;;;;;8.93;4.27;;;;;;;19.70;75.45;156426.47;4980314;28;20416;-77
2022/10/29 10:18:20;;;;;;;9.13;4.80;;;;;;;19.84;75.36;156463.00;4995085;28;20436;-77
2022/10/29 10:21:07;;;;;;;10.60;4.83;;;;;;;19.80;75.19;156452.59;5008792;28;20494;-77
2022/10/29 10:23:53;;;;;;;5.30;3.90;;;;;;;19.84;75.84;156463.00;5006374;28;20476;-77
2022/10/29 10:26:42;;;;;;;12.53;4.80;;;;;;;19.87;76.54;156470.81;4987134;28;20541;-77
2022/10/29 10:29:27;;;;;;;7.37;4.57;;;;;;;19.98;76.41;156500.81;5002589;28;20848;-77
2022/10/29 10:32:16;;;;;;;9.27;4.23;;;;;;;20.10;75.43;156530.78;4991869;28;20440;-77
2022/10/29 10:35:02;;;;;;;9.07;5.00;;;;;;;20.05;76.54;156517.75;4993268;28;20440;-77
2022/10/29 10:37:47;;;;;;;9.07;5.07;;;;;;;20.24;75.74;156567.38;4993739;28;20923;-77
2022/10/29 10:40:32;;;;;;;9.53;5.17;;;;;;;20.32;74.11;156586.94;4993161;28;20849;-77
2022/10/29 10:43:22;;;;;;;5.37;3.60;;;;;;;20.24;74.91;156567.38;5001778;28;20585;-77
2022/10/29 10:46:12;;;;;;;12.00;4.80;;;;;;;20.18;75.98;156550.34;4992746;28;20923;-77
2022/10/29 10:49:03;;;;;;;8.80;4.87;;;;;;;20.22;75.39;156562.13;4975516;28;20530;-77
2022/10/29 10:51:51;;;;;;;12.00;5.40;;;;;;;20.37;75.13;156601.28;5007858;28;20798;-77
2022/10/29 10:54:41;;;;;;;8.40;4.67;;;;;;;20.42;75.12;156614.31;4993168;28;20536;-77
2022/10/29 10:57:29;;;;;;;7.83;4.20;;;;;;;20.36;76.29;156597.38;4993871;28;22255;-77
2022/10/29 11:00:18;;;;;;;11.00;5.07;;;;;;;20.43;75.93;156616.94;4990247;28;21256;-77
2022/10/29 11:03:12;;;;;;;10.23;5.47;;;;;;;20.38;76.50;156602.59;4973456;28;20541;-77
2022/10/29 11:06:03;;;;;;;7.17;3.90;;;;;;;20.37;77.25;156601.28;4978029;28;20441;-77
2022/10/29 11:08:52;;;;;;;7.67;4.50;;;;;;;20.32;78.68;156588.25;4974013;28;20426;-77
2022/10/29 11:11:40;;;;;;;11.43;4.73;;;;;;;20.35;78.60;156596.06;4976665;28;20461;-77
2022/10/29 11:14:29;;;;;;;6.60;4.33;;;;;;;20.36;79.26;156597.38;4953459;28;20444;-77
2022/10/29 11:17:25;;;;;;;9.20;4.40;;;;;;;20.35;79.95;156596.06;4977497;28;20581;-77
2022/10/29 11:20:15;;;;;;;10.80;5.90;;;;;;;20.39;79.97;156605.16;4981453;28;20449;-77
2022/10/29 11:23:17;;;;;;;8.00;5.00;;;;;;;20.44;80.39;156618.22;4978420;28;20521;-77
2022/10/29 11:26:07;;;;;;;7.03;4.80;;;;;;;20.58;79.46;156656.06;4973009;28;20602;-77
2022/10/29 11:28:57;;;;;;;9.27;5.47;;;;;;;20.65;78.95;156674.31;4966888;28;20573;-77
2022/10/29 11:31:47;;;;;;;8.70;4.70;;;;;;;20.59;80.70;156658.69;4978221;28;20445;-77
2022/10/29 11:34:40;;;;;;;8.83;5.20;;;;;;;20.62;79.21;156665.22;4981630;28;20438;-77
2022/10/29 11:37:31;;;;;;;6.97;5.20;;;;;;;20.70;79.70;156686.09;4984399;28;21060;-77
2022/10/29 11:40:21;;;;;;;7.67;5.53;;;;;;;20.69;79.96;156683.47;4982209;28;20449;-92
2022/10/29 11:43:10;;;;;;;9.00;4.70;;;;;;;20.69;79.97;156683.47;4979686;28;20445;-92
2022/10/29 11:46:03;;;;;;;12.70;4.60;;;;;;;20.68;80.32;156679.56;4983454;28;20483;-92
2022/10/29 11:48:54;;;;;;;8.60;4.30;;;;;;;20.65;80.02;156674.31;4990081;28;20548;-92
2022/10/29 11:51:45;;;;;;;8.97;5.27;;;;;;;20.71;79.83;156687.34;4977074;28;20465;-91
2022/10/29 11:54:41;;;;;;;6.57;4.67;;;;;;;20.78;79.91;156706.97;4979402;28;20422;-92
2022/10/29 11:57:34;;;;;;;9.80;4.63;;;;;;;20.92;79.33;156742.16;4979206;28;20939;-92
2022/10/29 12:00:20;;;;;;;7.47;4.80;;;;;;;20.88;78.79;156731.75;4976354;28;20940;-91
2022/10/29 12:03:22;;;;;;;10.10;5.53;;;;;;;21.07;78.42;156781.38;4993951;28;20432;-91
2022/10/29 12:06:14;;;;;;;9.50;5.10;;;;;;;21.15;78.11;156802.25;4988597;28;20945;-92
2022/10/29 12:09:23;;;;;;;11.27;4.67;;;;;;;21.12;77.70;156795.75;4981207;28;21285;-92
2022/10/29 12:12:13;;;;;;;8.83;4.53;;;;;;;21.10;78.68;156790.50;4993461;28;20437;-92
2022/10/29 12:15:04;;;;;;;9.90;4.47;;;;;;;21.24;78.32;156825.72;4984881;28;20536;-92
2022/10/29 12:17:55;;;;;;;7.57;4.30;;;;;;;21.28;78.68;156834.88;4977432;28;20584;-91
2022/10/29 12:20:45;;;;;;;11.43;4.70;;;;;;;21.24;78.86;156827.03;4998036;28;20485;-92
2022/10/29 12:23:39;;;;;;;10.33;5.43;;;;;;;21.34;77.79;156851.81;4987596;28;21003;-92
2022/10/29 12:26:29;;;;;;;6.77;4.77;;;;;;;21.38;78.28;156862.28;4978272;28;20513;-92
2022/10/29 12:29:19;;;;;;;8.77;4.50;;;;;;;21.42;77.99;156872.72;4985044;28;20572;-92
2022/10/29 12:32:09;;;;;;;9.50;5.27;;;;;;;21.48;77.14;156888.38;4977937;28;20445;-92
2022/10/29 12:35:01;;;;;;;12.80;4.83;;;;;;;21.51;76.62;156894.91;4975409;28;20449;-91
2022/10/29 12:37:58;;;;;;;9.27;5.17;;;;;;;21.50;76.78;156893.59;4984910;28;20433;-92
2022/10/29 12:40:45;;;;;;;10.17;5.20;;;;;;;21.62;75.79;156924.97;4976997;28;20921;-92
2022/10/29 12:43:34;;;;;;;9.83;4.93;;;;;;;21.64;76.97;156930.16;4964050;28;20549;-92
2022/10/29 12:46:25;;;;;;;11.87;5.20;;;;;;;21.72;76.67;156951.06;4977344;28;20414;-92
2022/10/29 12:49:18;;;;;;;10.03;5.40;;;;;;;21.73;77.52;156953.69;4975127;28;20528;-92
2022/10/29 12:52:05;;;;;;;11.83;5.80;;;;;;;21.84;76.15;156982.38;4986750;28;20436;-93
2022/10/29 12:54:51;;;;;;;8.07;4.67;;;;;;;22.00;75.12;157021.63;4972843;28;20462;-92
2022/10/29 12:57:36;;;;;;;8.23;5.70;;;;;;;21.89;75.59;156994.19;4974987;28;20441;-92